sensor_id;sensor_type;location;lat;lon;timestamp;pressure;altitude;pressure_sealevel;temperature;humidity
64628;BME280;68467;50.960;0.314;2023-09-12T00:01:04;99640.84;;;20.29;100.00
64628;BME280;68467;50.960;0.314;2023-09-12T00:03:32;99638.81;;;20.13;100.00
64628;BME280;68467;50.960;0.314;2023-09-12T00:06:02;99634.20;;;19.89;100.00
64628;BME280;68467;50.960;0.314;2023-09-12T00:08:29;99634.22;;;19.55;100.00
64628;BME280;68467;50.960;0.314;2023-09-12T00:11:05;99634.52;;;19.66;100.00
64628;BME280;68467;50.960;0.314;2023-09-12T00:13:33;99632.36;;;19.73;100.00
64628;BME280;68467;50.960;0.314;2023-09-12T00:16:01;99635.78;;;20.08;100.00
64628;BME280;68467;50.960;0.314;2023-09-12T00:18:28;99633.88;;;19.63;100.00
64628;BME280;68467;50.960;0.314;2023-09-12T00:20:56;99631.11;;;19.89;100.00
64628;BME280;68467;50.960;0.314;2023-09-12T00:23:23;99629.36;;;19.98;100.00
64628;BME280;68467;50.960;0.314;2023-09-12T00:25:51;99631.88;;;19.08;100.00
64628;BME280;68467;50.960;0.314;2023-09-12T00:28:18;99627.95;;;19.32;100.00
64628;BME280;68467;50.960;0.314;2023-09-12T00:30:46;99626.45;;;19.95;100.00
64628;BME280;68467;50.960;0.314;2023-09-12T00:33:14;99623.33;;;20.13;100.00
64628;BME280;68467;50.960;0.314;2023-09-12T00:35:41;99620.90;;;19.50;100.00
64628;BME280;68467;50.960;0.314;2023-09-12T00:38:09;99619.30;;;20.13;100.00
64628;BME280;68467;50.960;0.314;2023-09-12T00:40:36;99617.66;;;20.11;100.00
64628;BME280;68467;50.960;0.314;2023-09-12T00:43:04;99614.89;;;20.22;100.00
64628;BME280;68467;50.960;0.314;2023-09-12T00:45:32;99611.30;;;20.19;100.00
64628;BME280;68467;50.960;0.314;2023-09-12T00:48:01;99608.12;;;20.45;100.00
64628;BME280;68467;50.960;0.314;2023-09-12T00:50:31;99602.74;;;20.64;100.00
64628;BME280;68467;50.960;0.314;2023-09-12T00:52:58;99599.21;;;20.11;100.00
64628;BME280;68467;50.960;0.314;2023-09-12T00:55:26;99597.03;;;19.77;100.00
64628;BME280;68467;50.960;0.314;2023-09-12T00:57:53;99596.93;;;20.23;100.00
64628;BME280;68467;50.960;0.314;2023-09-12T01:00:22;99603.60;;;19.27;100.00
64628;BME280;68467;50.960;0.314;2023-09-12T01:02:49;99600.10;;;19.94;100.00
64628;BME280;68467;50.960;0.314;2023-09-12T01:05:18;99600.11;;;19.26;100.00
64628;BME280;68467;50.960;0.314;2023-09-12T01:07:47;99601.55;;;19.64;100.00
64628;BME280;68467;50.960;0.314;2023-09-12T01:10:15;99601.66;;;19.19;100.00
64628;BME280;68467;50.960;0.314;2023-09-12T01:12:42;99597.45;;;20.07;100.00
64628;BME280;68467;50.960;0.314;2023-09-12T01:15:09;99593.21;;;20.19;100.00
64628;BME280;68467;50.960;0.314;2023-09-12T01:17:37;99589.62;;;20.34;100.00
64628;BME280;68467;50.960;0.314;2023-09-12T01:20:07;99592.03;;;19.27;100.00
64628;BME280;68467;50.960;0.314;2023-09-12T01:22:52;99593.45;;;19.79;100.00
64628;BME280;68467;50.960;0.314;2023-09-12T01:25:36;99592.78;;;20.15;100.00
64628;BME280;68467;50.960;0.314;2023-09-12T01:28:10;99590.49;;;21.01;100.00
64628;BME280;68467;50.960;0.314;2023-09-12T01:30:39;99592.55;;;19.05;100.00
64628;BME280;68467;50.960;0.314;2023-09-12T01:33:08;99589.37;;;20.28;100.00
64628;BME280;68467;50.960;0.314;2023-09-12T01:35:36;99589.04;;;19.68;100.00
64628;BME280;68467;50.960;0.314;2023-09-12T01:38:04;99587.88;;;20.22;100.00
64628;BME280;68467;50.960;0.314;2023-09-12T01:40:36;99587.63;;;20.51;100.00
64628;BME280;68467;50.960;0.314;2023-09-12T01:43:06;99588.57;;;20.52;100.00
64628;BME280;68467;50.960;0.314;2023-09-12T01:45:35;99595.19;;;18.45;100.00
64628;BME280;68467;50.960;0.314;2023-09-12T01:48:05;99595.42;;;19.60;100.00
64628;BME280;68467;50.960;0.314;2023-09-12T01:50:34;99596.22;;;19.92;100.00
64628;BME280;68467;50.960;0.314;2023-09-12T01:53:02;99594.48;;;20.02;100.00
64628;BME280;68467;50.960;0.314;2023-09-12T01:55:29;99592.25;;;20.32;100.00
64628;BME280;68467;50.960;0.314;2023-09-12T01:57:57;99594.84;;;19.65;100.00
64628;BME280;68467;50.960;0.314;2023-09-12T02:00:24;99590.85;;;19.83;100.00
64628;BME280;68467;50.960;0.314;2023-09-12T02:02:53;99591.31;;;19.98;100.00
64628;BME280;68467;50.960;0.314;2023-09-12T02:05:22;99588.09;;;20.82;100.00
64628;BME280;68467;50.960;0.314;2023-09-12T02:07:50;99592.25;;;19.15;100.00
64628;BME280;68467;50.960;0.314;2023-09-12T02:10:17;99589.80;;;20.46;100.00
64628;BME280;68467;50.960;0.314;2023-09-12T02:12:44;99588.97;;;19.60;100.00
64628;BME280;68467;50.960;0.314;2023-09-12T02:15:11;99590.23;;;19.91;100.00
64628;BME280;68467;50.960;0.314;2023-09-12T02:17:38;99590.60;;;20.00;100.00
64628;BME280;68467;50.960;0.314;2023-09-12T02:20:08;99592.47;;;19.66;100.00
64628;BME280;68467;50.960;0.314;2023-09-12T02:22:36;99594.60;;;21.08;100.00
64628;BME280;68467;50.960;0.314;2023-09-12T02:25:05;99601.80;;;20.70;100.00
64628;BME280;68467;50.960;0.314;2023-09-12T02:27:32;99612.01;;;19.88;100.00
64628;BME280;68467;50.960;0.314;2023-09-12T02:29:59;99610.10;;;19.63;100.00
64628;BME280;68467;50.960;0.314;2023-09-12T02:32:27;99604.57;;;20.46;100.00
64628;BME280;68467;50.960;0.314;2023-09-12T02:34:55;99605.79;;;18.84;100.00
64628;BME280;68467;50.960;0.314;2023-09-12T02:37:21;99603.78;;;19.20;100.00
64628;BME280;68467;50.960;0.314;2023-09-12T02:39:49;99604.38;;;19.61;100.00
64628;BME280;68467;50.960;0.314;2023-09-12T02:42:16;99602.90;;;19.90;100.00
64628;BME280;68467;50.960;0.314;2023-09-12T02:44:44;99607.50;;;19.87;100.00
64628;BME280;68467;50.960;0.314;2023-09-12T02:47:11;99604.24;;;19.55;100.00
64628;BME280;68467;50.960;0.314;2023-09-12T02:49:38;99602.13;;;18.97;100.00
64628;BME280;68467;50.960;0.314;2023-09-12T02:52:05;99596.65;;;19.76;100.00
64628;BME280;68467;50.960;0.314;2023-09-12T02:54:33;99593.47;;;19.72;100.00
64628;BME280;68467;50.960;0.314;2023-09-12T02:57:00;99597.48;;;18.79;100.00
64628;BME280;68467;50.960;0.314;2023-09-12T02:59:27;99597.15;;;19.86;100.00
64628;BME280;68467;50.960;0.314;2023-09-12T03:01:54;99602.74;;;19.33;100.00
64628;BME280;68467;50.960;0.314;2023-09-12T03:04:22;99604.83;;;19.48;100.00
64628;BME280;68467;50.960;0.314;2023-09-12T03:06:50;99606.09;;;19.78;100.00
64628;BME280;68467;50.960;0.314;2023-09-12T03:09:16;99601.00;;;19.36;100.00
64628;BME280;68467;50.960;0.314;2023-09-12T03:11:43;99602.05;;;19.94;100.00
64628;BME280;68467;50.960;0.314;2023-09-12T03:14:11;99603.30;;;19.46;100.00
64628;BME280;68467;50.960;0.314;2023-09-12T03:16:38;99603.11;;;19.40;100.00
64628;BME280;68467;50.960;0.314;2023-09-12T03:19:05;99603.05;;;19.24;100.00
64628;BME280;68467;50.960;0.314;2023-09-12T03:21:32;99596.64;;;19.46;100.00
64628;BME280;68467;50.960;0.314;2023-09-12T03:24:00;99594.19;;;20.05;100.00
64628;BME280;68467;50.960;0.314;2023-09-12T03:26:27;99595.18;;;19.43;100.00
64628;BME280;68467;50.960;0.314;2023-09-12T03:28:54;99596.92;;;19.55;100.00
64628;BME280;68467;50.960;0.314;2023-09-12T03:31:21;99599.61;;;19.30;100.00
64628;BME280;68467;50.960;0.314;2023-09-12T03:33:49;99601.77;;;19.23;100.00
64628;BME280;68467;50.960;0.314;2023-09-12T03:36:16;99600.58;;;19.00;100.00
64628;BME280;68467;50.960;0.314;2023-09-12T03:38:43;99593.23;;;18.71;100.00
64628;BME280;68467;50.960;0.314;2023-09-12T03:41:10;99587.89;;;19.11;100.00
64628;BME280;68467;50.960;0.314;2023-09-12T03:43:37;99579.03;;;19.51;100.00
64628;BME280;68467;50.960;0.314;2023-09-12T03:46:05;99577.30;;;19.45;100.00
64628;BME280;68467;50.960;0.314;2023-09-12T03:48:31;99577.00;;;19.47;100.00
64628;BME280;68467;50.960;0.314;2023-09-12T03:50:59;99580.41;;;19.30;100.00
64628;BME280;68467;50.960;0.314;2023-09-12T03:53:27;99588.19;;;19.36;100.00
64628;BME280;68467;50.960;0.314;2023-09-12T03:55:54;99589.76;;;19.40;100.00
64628;BME280;68467;50.960;0.314;2023-09-12T03:58:22;99591.21;;;20.13;100.00
64628;BME280;68467;50.960;0.314;2023-09-12T04:00:49;99589.12;;;19.38;100.00
64628;BME280;68467;50.960;0.314;2023-09-12T04:03:16;99595.20;;;19.01;100.00
64628;BME280;68467;50.960;0.314;2023-09-12T04:05:46;99589.45;;;19.22;100.00
64628;BME280;68467;50.960;0.314;2023-09-12T04:08:13;99589.26;;;19.43;100.00
64628;BME280;68467;50.960;0.314;2023-09-12T04:10:41;99586.00;;;19.39;100.00
64628;BME280;68467;50.960;0.314;2023-09-12T04:13:07;99587.19;;;19.17;100.00
64628;BME280;68467;50.960;0.314;2023-09-12T04:15:35;99583.87;;;19.39;100.00
64628;BME280;68467;50.960;0.314;2023-09-12T04:18:02;99581.06;;;19.47;100.00
64628;BME280;68467;50.960;0.314;2023-09-12T04:20:30;99580.20;;;19.19;100.00
64628;BME280;68467;50.960;0.314;2023-09-12T04:22:59;99575.22;;;19.51;100.00
64628;BME280;68467;50.960;0.314;2023-09-12T04:25:27;99573.20;;;19.26;100.00
64628;BME280;68467;50.960;0.314;2023-09-12T04:27:54;99568.93;;;19.54;100.00
64628;BME280;68467;50.960;0.314;2023-09-12T04:30:22;99564.74;;;19.34;100.00
64628;BME280;68467;50.960;0.314;2023-09-12T04:32:49;99560.43;;;19.40;100.00
64628;BME280;68467;50.960;0.314;2023-09-12T04:35:16;99552.39;;;19.78;100.00
64628;BME280;68467;50.960;0.314;2023-09-12T04:37:43;99556.78;;;19.49;100.00
64628;BME280;68467;50.960;0.314;2023-09-12T04:40:10;99553.41;;;19.96;100.00
64628;BME280;68467;50.960;0.314;2023-09-12T04:42:37;99554.47;;;19.92;100.00
64628;BME280;68467;50.960;0.314;2023-09-12T04:45:06;99558.14;;;19.53;100.00
64628;BME280;68467;50.960;0.314;2023-09-12T04:47:33;99564.32;;;19.22;100.00
64628;BME280;68467;50.960;0.314;2023-09-12T04:50:01;99568.37;;;19.03;100.00
64628;BME280;68467;50.960;0.314;2023-09-12T04:52:29;99566.02;;;20.02;100.00
64628;BME280;68467;50.960;0.314;2023-09-12T04:54:56;99571.95;;;19.20;100.00
64628;BME280;68467;50.960;0.314;2023-09-12T04:57:23;99570.00;;;19.58;100.00
64628;BME280;68467;50.960;0.314;2023-09-12T04:59:51;99568.18;;;19.20;100.00
64628;BME280;68467;50.960;0.314;2023-09-12T05:02:18;99568.82;;;18.95;100.00
64628;BME280;68467;50.960;0.314;2023-09-12T05:04:45;99568.38;;;19.26;100.00
64628;BME280;68467;50.960;0.314;2023-09-12T05:07:12;99570.40;;;18.59;100.00
64628;BME280;68467;50.960;0.314;2023-09-12T05:09:40;99571.96;;;20.41;100.00
64628;BME280;68467;50.960;0.314;2023-09-12T05:12:07;99575.97;;;20.19;100.00
64628;BME280;68467;50.960;0.314;2023-09-12T05:14:34;99578.08;;;19.24;100.00
64628;BME280;68467;50.960;0.314;2023-09-12T05:17:01;99578.93;;;20.22;100.00
64628;BME280;68467;50.960;0.314;2023-09-12T05:19:30;99583.69;;;20.18;100.00
64628;BME280;68467;50.960;0.314;2023-09-12T05:21:57;99587.19;;;21.16;100.00
64628;BME280;68467;50.960;0.314;2023-09-12T05:24:24;99592.88;;;20.79;100.00
64628;BME280;68467;50.960;0.314;2023-09-12T05:26:51;99594.41;;;20.31;100.00
64628;BME280;68467;50.960;0.314;2023-09-12T05:29:18;99592.64;;;20.95;100.00
64628;BME280;68467;50.960;0.314;2023-09-12T05:31:45;99597.72;;;20.16;100.00
64628;BME280;68467;50.960;0.314;2023-09-12T05:34:12;99598.04;;;19.92;100.00
64628;BME280;68467;50.960;0.314;2023-09-12T05:36:39;99597.63;;;19.74;100.00
64628;BME280;68467;50.960;0.314;2023-09-12T05:39:06;99594.01;;;19.19;100.00
64628;BME280;68467;50.960;0.314;2023-09-12T05:41:33;99591.62;;;19.86;100.00
64628;BME280;68467;50.960;0.314;2023-09-12T05:44:01;99592.75;;;20.70;100.00
64628;BME280;68467;50.960;0.314;2023-09-12T05:46:28;99599.02;;;20.28;100.00
64628;BME280;68467;50.960;0.314;2023-09-12T05:48:55;99604.21;;;19.70;100.00
64628;BME280;68467;50.960;0.314;2023-09-12T05:51:23;99605.69;;;19.06;100.00
64628;BME280;68467;50.960;0.314;2023-09-12T05:53:50;99606.22;;;20.53;100.00
64628;BME280;68467;50.960;0.314;2023-09-12T05:56:17;99607.76;;;19.03;100.00
64628;BME280;68467;50.960;0.314;2023-09-12T05:58:45;99610.65;;;20.10;100.00
64628;BME280;68467;50.960;0.314;2023-09-12T06:01:13;99609.01;;;19.98;100.00
64628;BME280;68467;50.960;0.314;2023-09-12T06:03:40;99608.31;;;20.40;100.00
64628;BME280;68467;50.960;0.314;2023-09-12T06:06:09;99605.46;;;20.21;100.00
64628;BME280;68467;50.960;0.314;2023-09-12T06:08:36;99609.51;;;20.11;100.00
64628;BME280;68467;50.960;0.314;2023-09-12T06:11:03;99611.19;;;20.12;100.00
64628;BME280;68467;50.960;0.314;2023-09-12T06:13:30;99611.82;;;19.99;100.00
64628;BME280;68467;50.960;0.314;2023-09-12T06:15:57;99616.38;;;19.16;100.00
64628;BME280;68467;50.960;0.314;2023-09-12T06:18:25;99615.84;;;19.94;100.00
64628;BME280;68467;50.960;0.314;2023-09-12T06:20:51;99619.01;;;19.87;100.00
64628;BME280;68467;50.960;0.314;2023-09-12T06:23:19;99627.33;;;18.87;100.00
64628;BME280;68467;50.960;0.314;2023-09-12T06:25:47;99628.77;;;19.56;100.00
64628;BME280;68467;50.960;0.314;2023-09-12T06:28:24;99630.61;;;19.41;100.00
64628;BME280;68467;50.960;0.314;2023-09-12T06:30:52;99633.37;;;19.07;100.00
64628;BME280;68467;50.960;0.314;2023-09-12T06:33:20;99632.42;;;20.63;100.00
64628;BME280;68467;50.960;0.314;2023-09-12T06:35:48;99638.25;;;19.91;100.00
64628;BME280;68467;50.960;0.314;2023-09-12T06:38:16;99634.52;;;19.75;100.00
64628;BME280;68467;50.960;0.314;2023-09-12T06:40:43;99634.86;;;20.63;100.00
64628;BME280;68467;50.960;0.314;2023-09-12T06:43:10;99642.11;;;20.09;100.00
64628;BME280;68467;50.960;0.314;2023-09-12T06:45:39;99644.21;;;20.26;100.00
64628;BME280;68467;50.960;0.314;2023-09-12T06:48:07;99646.82;;;19.79;100.00
64628;BME280;68467;50.960;0.314;2023-09-12T06:50:35;99648.54;;;19.58;100.00
64628;BME280;68467;50.960;0.314;2023-09-12T06:53:03;99646.37;;;20.29;100.00
64628;BME280;68467;50.960;0.314;2023-09-12T06:55:31;99646.49;;;20.42;100.00
64628;BME280;68467;50.960;0.314;2023-09-12T06:57:58;99645.20;;;20.70;100.00
64628;BME280;68467;50.960;0.314;2023-09-12T07:00:25;99647.06;;;20.33;100.00
64628;BME280;68467;50.960;0.314;2023-09-12T07:02:51;99646.09;;;20.31;100.00
64628;BME280;68467;50.960;0.314;2023-09-12T07:05:19;99645.36;;;20.11;100.00
64628;BME280;68467;50.960;0.314;2023-09-12T07:07:47;99640.47;;;20.43;100.00
64628;BME280;68467;50.960;0.314;2023-09-12T07:10:14;99645.71;;;19.65;100.00
64628;BME280;68467;50.960;0.314;2023-09-12T07:12:42;99641.39;;;20.79;100.00
64628;BME280;68467;50.960;0.314;2023-09-12T07:15:09;99644.46;;;21.78;100.00
64628;BME280;68467;50.960;0.314;2023-09-12T07:17:37;99646.42;;;20.46;100.00
64628;BME280;68467;50.960;0.314;2023-09-12T07:20:05;99646.53;;;21.54;100.00
64628;BME280;68467;50.960;0.314;2023-09-12T07:22:33;99647.99;;;21.81;100.00
64628;BME280;68467;50.960;0.314;2023-09-12T07:25:00;99650.27;;;22.15;100.00
64628;BME280;68467;50.960;0.314;2023-09-12T07:27:28;99657.16;;;21.21;100.00
64628;BME280;68467;50.960;0.314;2023-09-12T07:29:56;99657.53;;;21.34;100.00
64628;BME280;68467;50.960;0.314;2023-09-12T07:32:23;99658.24;;;21.79;100.00
64628;BME280;68467;50.960;0.314;2023-09-12T07:34:50;99657.28;;;21.18;100.00
64628;BME280;68467;50.960;0.314;2023-09-12T07:37:17;99656.02;;;21.23;100.00
64628;BME280;68467;50.960;0.314;2023-09-12T07:39:45;99659.28;;;20.92;100.00
64628;BME280;68467;50.960;0.314;2023-09-12T07:42:12;99662.55;;;20.73;100.00
64628;BME280;68467;50.960;0.314;2023-09-12T07:44:40;99664.31;;;21.28;100.00
64628;BME280;68467;50.960;0.314;2023-09-12T07:47:08;99665.74;;;20.45;100.00
64628;BME280;68467;50.960;0.314;2023-09-12T07:49:34;99663.27;;;20.42;100.00
64628;BME280;68467;50.960;0.314;2023-09-12T07:52:02;99665.47;;;21.27;100.00
64628;BME280;68467;50.960;0.314;2023-09-12T07:54:29;99666.85;;;21.49;100.00
64628;BME280;68467;50.960;0.314;2023-09-12T07:56:56;99670.79;;;20.74;100.00
64628;BME280;68467;50.960;0.314;2023-09-12T07:59:24;99672.46;;;21.21;100.00
64628;BME280;68467;50.960;0.314;2023-09-12T08:01:52;99670.14;;;21.06;100.00
64628;BME280;68467;50.960;0.314;2023-09-12T08:04:19;99668.67;;;21.51;100.00
64628;BME280;68467;50.960;0.314;2023-09-12T08:06:47;99669.50;;;21.09;100.00
64628;BME280;68467;50.960;0.314;2023-09-12T08:09:14;99672.52;;;20.88;100.00
64628;BME280;68467;50.960;0.314;2023-09-12T08:11:41;99674.23;;;21.26;100.00
64628;BME280;68467;50.960;0.314;2023-09-12T08:14:09;99673.45;;;20.50;100.00
64628;BME280;68467;50.960;0.314;2023-09-12T08:16:36;99672.39;;;20.84;100.00
64628;BME280;68467;50.960;0.314;2023-09-12T08:19:03;99675.74;;;21.01;100.00
64628;BME280;68467;50.960;0.314;2023-09-12T08:21:30;99677.57;;;20.90;100.00
64628;BME280;68467;50.960;0.314;2023-09-12T08:23:57;99676.01;;;20.72;100.00
64628;BME280;68467;50.960;0.314;2023-09-12T08:26:24;99673.49;;;21.08;100.00
64628;BME280;68467;50.960;0.314;2023-09-12T08:28:51;99671.34;;;21.15;100.00
64628;BME280;68467;50.960;0.314;2023-09-12T08:31:18;99672.25;;;21.67;100.00
64628;BME280;68467;50.960;0.314;2023-09-12T08:33:46;99673.90;;;21.01;100.00
64628;BME280;68467;50.960;0.314;2023-09-12T08:36:13;99677.70;;;21.07;100.00
64628;BME280;68467;50.960;0.314;2023-09-12T08:38:41;99680.87;;;21.46;100.00
64628;BME280;68467;50.960;0.314;2023-09-12T08:41:09;99687.00;;;21.01;100.00
64628;BME280;68467;50.960;0.314;2023-09-12T08:43:36;99692.88;;;20.74;100.00
64628;BME280;68467;50.960;0.314;2023-09-12T08:46:05;99697.05;;;20.71;100.00
64628;BME280;68467;50.960;0.314;2023-09-12T08:48:33;99697.08;;;20.44;100.00
64628;BME280;68467;50.960;0.314;2023-09-12T08:51:02;99691.07;;;20.83;100.00
64628;BME280;68467;50.960;0.314;2023-09-12T08:53:36;99691.91;;;20.70;100.00
64628;BME280;68467;50.960;0.314;2023-09-12T08:56:04;99691.72;;;21.18;100.00
64628;BME280;68467;50.960;0.314;2023-09-12T08:58:32;99695.73;;;19.74;100.00
64628;BME280;68467;50.960;0.314;2023-09-12T09:01:01;99692.29;;;21.43;100.00
64628;BME280;68467;50.960;0.314;2023-09-12T09:03:29;99688.60;;;21.26;100.00
64628;BME280;68467;50.960;0.314;2023-09-12T09:05:57;99687.65;;;21.42;100.00
64628;BME280;68467;50.960;0.314;2023-09-12T09:08:25;99691.51;;;21.52;100.00
64628;BME280;68467;50.960;0.314;2023-09-12T09:10:55;99691.48;;;21.34;100.00
64628;BME280;68467;50.960;0.314;2023-09-12T09:13:23;99692.02;;;22.47;100.00
64628;BME280;68467;50.960;0.314;2023-09-12T09:16:09;99691.95;;;22.52;100.00
64628;BME280;68467;50.960;0.314;2023-09-12T09:18:50;99693.22;;;22.58;100.00
64628;BME280;68467;50.960;0.314;2023-09-12T09:21:18;99692.45;;;22.40;100.00
64628;BME280;68467;50.960;0.314;2023-09-12T09:23:47;99689.72;;;22.41;100.00
64628;BME280;68467;50.960;0.314;2023-09-12T09:26:14;99689.69;;;22.74;100.00
64628;BME280;68467;50.960;0.314;2023-09-12T09:28:41;99688.19;;;22.74;100.00
64628;BME280;68467;50.960;0.314;2023-09-12T09:31:10;99689.89;;;22.99;100.00
64628;BME280;68467;50.960;0.314;2023-09-12T09:33:39;99692.12;;;23.05;100.00
64628;BME280;68467;50.960;0.314;2023-09-12T09:36:07;99694.56;;;23.80;100.00
64628;BME280;68467;50.960;0.314;2023-09-12T09:38:35;99695.18;;;23.62;100.00
64628;BME280;68467;50.960;0.314;2023-09-12T09:41:05;99694.44;;;23.86;100.00
64628;BME280;68467;50.960;0.314;2023-09-12T09:43:33;99689.91;;;23.50;100.00
64628;BME280;68467;50.960;0.314;2023-09-12T09:46:00;99692.59;;;23.70;100.00
64628;BME280;68467;50.960;0.314;2023-09-12T09:48:28;99697.58;;;23.57;100.00
64628;BME280;68467;50.960;0.314;2023-09-12T09:51:01;99696.82;;;23.55;100.00
64628;BME280;68467;50.960;0.314;2023-09-12T09:53:29;99695.05;;;24.25;100.00
64628;BME280;68467;50.960;0.314;2023-09-12T09:56:08;99700.49;;;23.69;100.00
64628;BME280;68467;50.960;0.314;2023-09-12T09:58:36;99695.81;;;23.87;100.00
64628;BME280;68467;50.960;0.314;2023-09-12T10:01:04;99693.86;;;24.10;100.00
64628;BME280;68467;50.960;0.314;2023-09-12T10:03:36;99693.54;;;23.47;100.00
64628;BME280;68467;50.960;0.314;2023-09-12T10:06:04;99690.35;;;23.44;100.00
64628;BME280;68467;50.960;0.314;2023-09-12T10:08:34;99688.07;;;23.74;100.00
64628;BME280;68467;50.960;0.314;2023-09-12T10:11:03;99690.16;;;23.68;100.00
64628;BME280;68467;50.960;0.314;2023-09-12T10:13:32;99688.49;;;22.98;100.00
64628;BME280;68467;50.960;0.314;2023-09-12T10:16:01;99684.35;;;23.92;100.00
64628;BME280;68467;50.960;0.314;2023-09-12T10:18:29;99683.26;;;24.43;100.00
64628;BME280;68467;50.960;0.314;2023-09-12T10:21:07;99684.70;;;24.07;100.00
64628;BME280;68467;50.960;0.314;2023-09-12T10:23:40;99686.03;;;24.08;100.00
64628;BME280;68467;50.960;0.314;2023-09-12T10:26:11;99686.29;;;24.33;100.00
64628;BME280;68467;50.960;0.314;2023-09-12T10:28:40;99689.46;;;23.66;100.00
64628;BME280;68467;50.960;0.314;2023-09-12T10:31:11;99688.81;;;23.49;100.00
64628;BME280;68467;50.960;0.314;2023-09-12T10:33:39;99686.68;;;23.50;100.00
64628;BME280;68467;50.960;0.314;2023-09-12T10:36:08;99689.23;;;23.48;100.00
64628;BME280;68467;50.960;0.314;2023-09-12T10:38:40;99688.31;;;23.08;100.00
64628;BME280;68467;50.960;0.314;2023-09-12T10:41:11;99686.97;;;22.64;100.00
64628;BME280;68467;50.960;0.314;2023-09-12T10:43:38;99681.08;;;23.08;100.00
64628;BME280;68467;50.960;0.314;2023-09-12T10:46:06;99680.16;;;22.89;100.00
64628;BME280;68467;50.960;0.314;2023-09-12T10:48:34;99678.24;;;23.02;100.00
64628;BME280;68467;50.960;0.314;2023-09-12T10:51:03;99672.60;;;23.17;100.00
64628;BME280;68467;50.960;0.314;2023-09-12T10:53:31;99675.63;;;23.37;100.00
64628;BME280;68467;50.960;0.314;2023-09-12T10:55:59;99670.59;;;23.37;100.00
64628;BME280;68467;50.960;0.314;2023-09-12T10:58:27;99669.04;;;23.44;100.00
64628;BME280;68467;50.960;0.314;2023-09-12T11:01:27;99672.17;;;22.84;100.00
64628;BME280;68467;50.960;0.314;2023-09-12T11:03:54;99668.16;;;23.53;100.00
64628;BME280;68467;50.960;0.314;2023-09-12T11:06:24;99670.78;;;23.64;100.00
64628;BME280;68467;50.960;0.314;2023-09-12T11:09:16;99671.28;;;23.86;100.00
64628;BME280;68467;50.960;0.314;2023-09-12T11:11:45;99674.37;;;23.84;100.00
64628;BME280;68467;50.960;0.314;2023-09-12T11:14:14;99674.50;;;24.04;100.00
64628;BME280;68467;50.960;0.314;2023-09-12T11:16:42;99674.92;;;23.68;100.00
64628;BME280;68467;50.960;0.314;2023-09-12T11:19:13;99668.58;;;24.25;100.00
64628;BME280;68467;50.960;0.314;2023-09-12T11:21:41;99666.17;;;24.24;100.00
64628;BME280;68467;50.960;0.314;2023-09-12T11:24:09;99663.75;;;24.82;100.00
64628;BME280;68467;50.960;0.314;2023-09-12T11:26:53;99666.22;;;24.57;100.00
64628;BME280;68467;50.960;0.314;2023-09-12T11:29:21;99665.34;;;25.48;100.00
64628;BME280;68467;50.960;0.314;2023-09-12T11:31:54;99667.42;;;24.96;100.00
64628;BME280;68467;50.960;0.314;2023-09-12T11:34:24;99671.61;;;24.04;100.00
64628;BME280;68467;50.960;0.314;2023-09-12T11:36:55;99675.50;;;24.13;100.00
64628;BME280;68467;50.960;0.314;2023-09-12T11:39:24;99674.85;;;23.68;100.00
64628;BME280;68467;50.960;0.314;2023-09-12T11:41:52;99683.43;;;23.39;100.00
64628;BME280;68467;50.960;0.314;2023-09-12T11:44:20;99683.70;;;23.52;100.00
64628;BME280;68467;50.960;0.314;2023-09-12T11:46:49;99679.10;;;24.36;100.00
64628;BME280;68467;50.960;0.314;2023-09-12T11:49:17;99674.24;;;24.29;100.00
64628;BME280;68467;50.960;0.314;2023-09-12T11:51:47;99670.02;;;24.19;100.00
64628;BME280;68467;50.960;0.314;2023-09-12T11:54:17;99667.26;;;24.01;100.00
64628;BME280;68467;50.960;0.314;2023-09-12T11:56:46;99668.02;;;24.33;100.00
64628;BME280;68467;50.960;0.314;2023-09-12T11:59:13;99659.63;;;24.70;100.00
64628;BME280;68467;50.960;0.314;2023-09-12T12:01:41;99657.56;;;25.02;100.00
64628;BME280;68467;50.960;0.314;2023-09-12T12:04:09;99656.30;;;24.51;100.00
64628;BME280;68467;50.960;0.314;2023-09-12T12:06:36;99654.75;;;24.83;100.00
64628;BME280;68467;50.960;0.314;2023-09-12T12:09:03;99652.24;;;24.69;100.00
64628;BME280;68467;50.960;0.314;2023-09-12T12:11:31;99647.62;;;25.52;100.00
64628;BME280;68467;50.960;0.314;2023-09-12T12:13:58;99650.09;;;25.41;100.00
64628;BME280;68467;50.960;0.314;2023-09-12T12:16:35;99651.07;;;25.53;100.00
64628;BME280;68467;50.960;0.314;2023-09-12T12:19:02;99646.08;;;25.52;100.00
64628;BME280;68467;50.960;0.314;2023-09-12T12:21:30;99643.21;;;26.36;100.00
64628;BME280;68467;50.960;0.314;2023-09-12T12:23:58;99641.91;;;26.12;100.00
64628;BME280;68467;50.960;0.314;2023-09-12T12:26:26;99639.66;;;26.43;100.00
64628;BME280;68467;50.960;0.314;2023-09-12T12:28:54;99647.74;;;26.09;100.00
64628;BME280;68467;50.960;0.314;2023-09-12T12:31:21;99643.17;;;25.89;100.00
64628;BME280;68467;50.960;0.314;2023-09-12T12:33:49;99640.94;;;25.80;100.00
64628;BME280;68467;50.960;0.314;2023-09-12T12:36:17;99644.95;;;25.32;100.00
64628;BME280;68467;50.960;0.314;2023-09-12T12:38:46;99645.61;;;24.71;100.00
64628;BME280;68467;50.960;0.314;2023-09-12T12:41:13;99641.97;;;25.20;100.00
64628;BME280;68467;50.960;0.314;2023-09-12T12:43:41;99643.03;;;24.76;100.00
64628;BME280;68467;50.960;0.314;2023-09-12T12:46:11;99646.58;;;24.93;100.00
64628;BME280;68467;50.960;0.314;2023-09-12T12:48:43;99647.19;;;25.37;100.00
64628;BME280;68467;50.960;0.314;2023-09-12T12:51:15;99648.82;;;24.99;100.00
64628;BME280;68467;50.960;0.314;2023-09-12T12:53:44;99644.10;;;25.60;100.00
64628;BME280;68467;50.960;0.314;2023-09-12T12:56:14;99640.12;;;25.34;100.00